sensor_id;sensor_type;location;lat;lon;timestamp;temperature;humidity
22950;DHT22;11641;51.018;4.474;2022-10-16T00:01:31;14.70;99.90
22950;DHT22;11641;51.018;4.474;2022-10-16T00:03:58;14.80;99.90
22950;DHT22;11641;51.018;4.474;2022-10-16T00:06:25;14.80;99.90
22950;DHT22;11641;51.018;4.474;2022-10-16T00:08:52;14.80;99.90
22950;DHT22;11641;51.018;4.474;2022-10-16T00:11:25;14.80;99.90
22950;DHT22;11641;51.018;4.474;2022-10-16T00:13:57;14.80;99.90
22950;DHT22;11641;51.018;4.474;2022-10-16T00:16:28;14.80;99.90
22950;DHT22;11641;51.018;4.474;2022-10-16T00:18:54;14.80;99.90
22950;DHT22;11641;51.018;4.474;2022-10-16T00:21:22;14.80;99.90
22950;DHT22;11641;51.018;4.474;2022-10-16T00:23:55;14.80;99.90
22950;DHT22;11641;51.018;4.474;2022-10-16T00:26:23;14.80;99.90
22950;DHT22;11641;51.018;4.474;2022-10-16T00:28:50;14.90;99.90
22950;DHT22;11641;51.018;4.474;2022-10-16T00:31:17;14.80;99.90
22950;DHT22;11641;51.018;4.474;2022-10-16T00:33:44;14.80;99.90
22950;DHT22;11641;51.018;4.474;2022-10-16T00:36:15;14.80;99.90
22950;DHT22;11641;51.018;4.474;2022-10-16T00:38:41;14.70;99.90
22950;DHT22;11641;51.018;4.474;2022-10-16T00:41:11;14.60;99.90
22950;DHT22;11641;51.018;4.474;2022-10-16T00:46:41;14.60;99.90
22950;DHT22;11641;51.018;4.474;2022-10-16T00:49:19;14.70;99.90
22950;DHT22;11641;51.018;4.474;2022-10-16T00:51:47;14.70;99.90
22950;DHT22;11641;51.018;4.474;2022-10-16T00:54:24;14.70;99.90
22950;DHT22;11641;51.018;4.474;2022-10-16T00:56:51;14.60;99.90
22950;DHT22;11641;51.018;4.474;2022-10-16T00:59:36;14.50;99.90
22950;DHT22;11641;51.018;4.474;2022-10-16T01:02:10;14.70;99.90
22950;DHT22;11641;51.018;4.474;2022-10-16T01:04:38;14.70;99.90
22950;DHT22;11641;51.018;4.474;2022-10-16T01:07:14;14.60;99.90
22950;DHT22;11641;51.018;4.474;2022-10-16T01:09:54;14.50;99.90
22950;DHT22;11641;51.018;4.474;2022-10-16T01:15:21;14.50;99.90
22950;DHT22;11641;51.018;4.474;2022-10-16T01:17:56;14.70;99.90
22950;DHT22;11641;51.018;4.474;2022-10-16T01:20:46;14.60;99.90
22950;DHT22;11641;51.018;4.474;2022-10-16T01:23:28;14.50;99.90
22950;DHT22;11641;51.018;4.474;2022-10-16T01:29:17;14.40;99.90
22950;DHT22;11641;51.018;4.474;2022-10-16T01:31:51;14.40;99.90
22950;DHT22;11641;51.018;4.474;2022-10-16T01:34:28;14.30;99.90
22950;DHT22;11641;51.018;4.474;2022-10-16T01:37:14;14.30;99.90
22950;DHT22;11641;51.018;4.474;2022-10-16T01:39:44;14.40;99.90
22950;DHT22;11641;51.018;4.474;2022-10-16T01:42:16;14.40;99.90
22950;DHT22;11641;51.018;4.474;2022-10-16T01:44:46;14.40;99.90
22950;DHT22;11641;51.018;4.474;2022-10-16T01:47:14;14.40;99.90
22950;DHT22;11641;51.018;4.474;2022-10-16T01:49:43;14.30;99.90
22950;DHT22;11641;51.018;4.474;2022-10-16T01:52:14;14.20;99.90
22950;DHT22;11641;51.018;4.474;2022-10-16T01:54:46;14.10;99.90
22950;DHT22;11641;51.018;4.474;2022-10-16T01:57:14;14.10;99.90
22950;DHT22;11641;51.018;4.474;2022-10-16T01:59:44;14.20;99.90
22950;DHT22;11641;51.018;4.474;2022-10-16T02:02:11;14.10;99.90
22950;DHT22;11641;51.018;4.474;2022-10-16T02:07:42;14.10;99.90
22950;DHT22;11641;51.018;4.474;2022-10-16T02:10:11;14.20;99.90
22950;DHT22;11641;51.018;4.474;2022-10-16T02:12:42;14.30;99.90
22950;DHT22;11641;51.018;4.474;2022-10-16T02:15:12;14.30;99.90
22950;DHT22;11641;51.018;4.474;2022-10-16T02:17:39;14.30;99.90
22950;DHT22;11641;51.018;4.474;2022-10-16T02:20:05;14.30;99.90
22950;DHT22;11641;51.018;4.474;2022-10-16T02:22:36;14.30;99.90
22950;DHT22;11641;51.018;4.474;2022-10-16T02:25:29;14.30;99.90
22950;DHT22;11641;51.018;4.474;2022-10-16T02:28:08;14.40;99.90
22950;DHT22;11641;51.018;4.474;2022-10-16T02:30:52;14.40;99.90
22950;DHT22;11641;51.018;4.474;2022-10-16T02:33:24;14.30;99.90
22950;DHT22;11641;51.018;4.474;2022-10-16T02:35:51;14.30;99.90
22950;DHT22;11641;51.018;4.474;2022-10-16T02:38:18;14.20;99.90
22950;DHT22;11641;51.018;4.474;2022-10-16T02:40:45;14.20;99.90
22950;DHT22;11641;51.018;4.474;2022-10-16T02:43:14;14.30;99.90
22950;DHT22;11641;51.018;4.474;2022-10-16T02:45:42;14.20;99.90
22950;DHT22;11641;51.018;4.474;2022-10-16T02:48:08;14.30;99.90
22950;DHT22;11641;51.018;4.474;2022-10-16T02:50:35;14.30;99.90
22950;DHT22;11641;51.018;4.474;2022-10-16T02:53:01;14.30;99.90
22950;DHT22;11641;51.018;4.474;2022-10-16T02:55:29;14.40;99.90
22950;DHT22;11641;51.018;4.474;2022-10-16T02:57:55;14.30;99.90
22950;DHT22;11641;51.018;4.474;2022-10-16T03:00:23;14.40;99.90
22950;DHT22;11641;51.018;4.474;2022-10-16T03:02:49;14.50;99.90
22950;DHT22;11641;51.018;4.474;2022-10-16T03:05:16;14.40;99.90
22950;DHT22;11641;51.018;4.474;2022-10-16T03:07:42;14.50;99.90
22950;DHT22;11641;51.018;4.474;2022-10-16T03:10:08;14.50;99.90
22950;DHT22;11641;51.018;4.474;2022-10-16T03:12:36;14.50;99.90
22950;DHT22;11641;51.018;4.474;2022-10-16T03:15:02;14.50;99.90
22950;DHT22;11641;51.018;4.474;2022-10-16T03:17:31;14.60;99.90
22950;DHT22;11641;51.018;4.474;2022-10-16T03:20:00;14.60;99.90
22950;DHT22;11641;51.018;4.474;2022-10-16T03:22:28;14.60;99.90
22950;DHT22;11641;51.018;4.474;2022-10-16T03:24:56;14.50;99.90
22950;DHT22;11641;51.018;4.474;2022-10-16T03:27:22;14.50;99.90
22950;DHT22;11641;51.018;4.474;2022-10-16T03:29:50;14.60;99.90
22950;DHT22;11641;51.018;4.474;2022-10-16T03:32:17;14.40;99.90
22950;DHT22;11641;51.018;4.474;2022-10-16T03:34:46;14.50;99.90
22950;DHT22;11641;51.018;4.474;2022-10-16T03:37:11;14.60;99.90
22950;DHT22;11641;51.018;4.474;2022-10-16T03:39:38;14.60;99.90
22950;DHT22;11641;51.018;4.474;2022-10-16T03:42:04;14.60;99.90
22950;DHT22;11641;51.018;4.474;2022-10-16T03:44:32;14.60;99.90
22950;DHT22;11641;51.018;4.474;2022-10-16T03:47:00;14.60;99.90
22950;DHT22;11641;51.018;4.474;2022-10-16T03:49:26;14.60;99.90
22950;DHT22;11641;51.018;4.474;2022-10-16T03:51:56;14.60;99.90
22950;DHT22;11641;51.018;4.474;2022-10-16T03:54:24;14.60;99.90
22950;DHT22;11641;51.018;4.474;2022-10-16T03:56:50;14.40;99.90
22950;DHT22;11641;51.018;4.474;2022-10-16T03:59:16;14.40;99.90
22950;DHT22;11641;51.018;4.474;2022-10-16T04:01:42;14.40;99.90
22950;DHT22;11641;51.018;4.474;2022-10-16T04:04:07;14.40;99.90
22950;DHT22;11641;51.018;4.474;2022-10-16T04:06:33;14.40;99.90
22950;DHT22;11641;51.018;4.474;2022-10-16T04:09:01;14.50;99.90
22950;DHT22;11641;51.018;4.474;2022-10-16T04:11:27;14.50;99.90
22950;DHT22;11641;51.018;4.474;2022-10-16T04:13:55;14.40;99.90
22950;DHT22;11641;51.018;4.474;2022-10-16T04:16:23;14.40;99.90
22950;DHT22;11641;51.018;4.474;2022-10-16T04:18:49;14.30;99.90
22950;DHT22;11641;51.018;4.474;2022-10-16T04:21:14;14.30;99.90
22950;DHT22;11641;51.018;4.474;2022-10-16T04:23:40;14.30;99.90
22950;DHT22;11641;51.018;4.474;2022-10-16T04:26:09;14.20;99.90
22950;DHT22;11641;51.018;4.474;2022-10-16T04:28:36;14.20;99.90
22950;DHT22;11641;51.018;4.474;2022-10-16T04:31:04;14.20;99.90
22950;DHT22;11641;51.018;4.474;2022-10-16T04:33:29;14.20;99.90
22950;DHT22;11641;51.018;4.474;2022-10-16T04:35:57;14.20;99.90
22950;DHT22;11641;51.018;4.474;2022-10-16T04:38:24;14.20;99.90
22950;DHT22;11641;51.018;4.474;2022-10-16T04:40:53;14.10;99.90
22950;DHT22;11641;51.018;4.474;2022-10-16T04:43:19;14.10;99.90
22950;DHT22;11641;51.018;4.474;2022-10-16T04:45:45;14.00;99.90
22950;DHT22;11641;51.018;4.474;2022-10-16T04:48:10;14.00;99.90
22950;DHT22;11641;51.018;4.474;2022-10-16T04:50:39;14.00;99.90
22950;DHT22;11641;51.018;4.474;2022-10-16T04:53:05;14.10;99.90
22950;DHT22;11641;51.018;4.474;2022-10-16T04:55:31;14.00;99.90
22950;DHT22;11641;51.018;4.474;2022-10-16T04:57:57;14.10;99.90
22950;DHT22;11641;51.018;4.474;2022-10-16T05:00:22;14.00;99.90
22950;DHT22;11641;51.018;4.474;2022-10-16T05:02:50;13.90;99.90
22950;DHT22;11641;51.018;4.474;2022-10-16T05:05:16;13.90;99.90
22950;DHT22;11641;51.018;4.474;2022-10-16T05:07:41;13.80;99.90
22950;DHT22;11641;51.018;4.474;2022-10-16T05:10:07;13.80;99.90
22950;DHT22;11641;51.018;4.474;2022-10-16T05:12:33;13.90;99.90
22950;DHT22;11641;51.018;4.474;2022-10-16T05:14:59;13.80;99.90
22950;DHT22;11641;51.018;4.474;2022-10-16T05:17:25;13.80;99.90
22950;DHT22;11641;51.018;4.474;2022-10-16T05:19:53;13.80;99.90
22950;DHT22;11641;51.018;4.474;2022-10-16T05:22:20;13.80;99.90
22950;DHT22;11641;51.018;4.474;2022-10-16T05:24:46;13.70;99.90
22950;DHT22;11641;51.018;4.474;2022-10-16T05:27:12;13.70;99.90
22950;DHT22;11641;51.018;4.474;2022-10-16T05:29:45;13.70;99.90
22950;DHT22;11641;51.018;4.474;2022-10-16T05:32:12;13.70;99.90
22950;DHT22;11641;51.018;4.474;2022-10-16T05:34:38;13.70;99.90
22950;DHT22;11641;51.018;4.474;2022-10-16T05:37:05;13.70;99.90
22950;DHT22;11641;51.018;4.474;2022-10-16T05:39:30;13.70;99.90
22950;DHT22;11641;51.018;4.474;2022-10-16T05:41:57;13.70;99.90
22950;DHT22;11641;51.018;4.474;2022-10-16T05:44:23;13.60;99.90
22950;DHT22;11641;51.018;4.474;2022-10-16T05:46:48;13.60;99.90
22950;DHT22;11641;51.018;4.474;2022-10-16T05:49:14;13.60;99.90
22950;DHT22;11641;51.018;4.474;2022-10-16T05:51:41;13.60;99.90
22950;DHT22;11641;51.018;4.474;2022-10-16T05:54:07;13.60;99.90
22950;DHT22;11641;51.018;4.474;2022-10-16T05:56:33;13.60;99.90
22950;DHT22;11641;51.018;4.474;2022-10-16T05:59:01;13.60;99.90
22950;DHT22;11641;51.018;4.474;2022-10-16T06:01:31;13.60;99.90
22950;DHT22;11641;51.018;4.474;2022-10-16T06:04:01;13.50;99.90
22950;DHT22;11641;51.018;4.474;2022-10-16T06:06:29;13.50;99.90
22950;DHT22;11641;51.018;4.474;2022-10-16T06:08:58;13.60;99.90
22950;DHT22;11641;51.018;4.474;2022-10-16T06:11:27;13.60;99.90
22950;DHT22;11641;51.018;4.474;2022-10-16T06:13:55;13.60;99.90
22950;DHT22;11641;51.018;4.474;2022-10-16T06:16:25;13.70;99.90
22950;DHT22;11641;51.018;4.474;2022-10-16T06:18:52;13.80;99.90
22950;DHT22;11641;51.018;4.474;2022-10-16T06:21:21;13.90;99.90
22950;DHT22;11641;51.018;4.474;2022-10-16T06:23:48;13.90;99.90
22950;DHT22;11641;51.018;4.474;2022-10-16T06:26:20;13.90;99.90
22950;DHT22;11641;51.018;4.474;2022-10-16T06:28:46;13.90;99.90
22950;DHT22;11641;51.018;4.474;2022-10-16T06:31:13;13.90;99.90
22950;DHT22;11641;51.018;4.474;2022-10-16T06:33:39;14.10;99.90
22950;DHT22;11641;51.018;4.474;2022-10-16T06:36:11;14.10;99.90
22950;DHT22;11641;51.018;4.474;2022-10-16T06:38:40;14.10;99.90
22950;DHT22;11641;51.018;4.474;2022-10-16T06:41:09;14.30;99.90
22950;DHT22;11641;51.018;4.474;2022-10-16T06:43:39;14.40;99.90
22950;DHT22;11641;51.018;4.474;2022-10-16T06:46:07;14.50;99.90
22950;DHT22;11641;51.018;4.474;2022-10-16T06:48:34;14.60;99.90
22950;DHT22;11641;51.018;4.474;2022-10-16T06:51:03;14.70;99.90
22950;DHT22;11641;51.018;4.474;2022-10-16T06:53:31;14.70;99.90
22950;DHT22;11641;51.018;4.474;2022-10-16T06:55:58;14.60;99.90
22950;DHT22;11641;51.018;4.474;2022-10-16T06:58:31;14.60;99.90
22950;DHT22;11641;51.018;4.474;2022-10-16T07:00:57;14.60;99.90
22950;DHT22;11641;51.018;4.474;2022-10-16T07:03:24;14.80;99.90
22950;DHT22;11641;51.018;4.474;2022-10-16T07:05:50;14.80;99.90
22950;DHT22;11641;51.018;4.474;2022-10-16T07:08:16;14.80;99.90
22950;DHT22;11641;51.018;4.474;2022-10-16T07:10:41;14.70;99.90
22950;DHT22;11641;51.018;4.474;2022-10-16T07:13:07;14.80;99.90
22950;DHT22;11641;51.018;4.474;2022-10-16T07:15:33;14.80;99.90
22950;DHT22;11641;51.018;4.474;2022-10-16T07:17:59;14.70;99.90
22950;DHT22;11641;51.018;4.474;2022-10-16T07:20:27;14.80;99.90
22950;DHT22;11641;51.018;4.474;2022-10-16T07:22:53;14.80;99.90
22950;DHT22;11641;51.018;4.474;2022-10-16T07:25:21;14.70;99.90
22950;DHT22;11641;51.018;4.474;2022-10-16T07:27:47;14.70;99.90
22950;DHT22;11641;51.018;4.474;2022-10-16T07:30:14;14.80;99.90
22950;DHT22;11641;51.018;4.474;2022-10-16T07:32:40;14.80;99.90
22950;DHT22;11641;51.018;4.474;2022-10-16T07:35:08;14.80;99.90
22950;DHT22;11641;51.018;4.474;2022-10-16T07:37:34;14.90;99.90
22950;DHT22;11641;51.018;4.474;2022-10-16T07:39:59;15.00;99.90
22950;DHT22;11641;51.018;4.474;2022-10-16T07:42:31;15.00;99.90
22950;DHT22;11641;51.018;4.474;2022-10-16T07:44:59;15.00;99.90
22950;DHT22;11641;51.018;4.474;2022-10-16T07:47:24;15.20;99.90
22950;DHT22;11641;51.018;4.474;2022-10-16T07:49:52;15.30;99.90
22950;DHT22;11641;51.018;4.474;2022-10-16T07:52:19;15.30;99.90
22950;DHT22;11641;51.018;4.474;2022-10-16T07:54:44;15.30;99.90
22950;DHT22;11641;51.018;4.474;2022-10-16T07:57:12;15.40;99.90
22950;DHT22;11641;51.018;4.474;2022-10-16T07:59:46;15.40;99.90
22950;DHT22;11641;51.018;4.474;2022-10-16T08:02:12;15.50;99.90
22950;DHT22;11641;51.018;4.474;2022-10-16T08:04:40;15.60;99.90
22950;DHT22;11641;51.018;4.474;2022-10-16T08:07:07;15.70;99.90
22950;DHT22;11641;51.018;4.474;2022-10-16T08:09:33;15.80;99.90
22950;DHT22;11641;51.018;4.474;2022-10-16T08:11:59;15.70;99.90
22950;DHT22;11641;51.018;4.474;2022-10-16T08:14:28;15.80;99.90
22950;DHT22;11641;51.018;4.474;2022-10-16T08:16:58;15.90;99.90
22950;DHT22;11641;51.018;4.474;2022-10-16T08:19:24;16.00;99.90
22950;DHT22;11641;51.018;4.474;2022-10-16T08:21:49;16.20;99.90
22950;DHT22;11641;51.018;4.474;2022-10-16T08:24:15;16.30;99.90
22950;DHT22;11641;51.018;4.474;2022-10-16T08:26:41;16.10;99.90
22950;DHT22;11641;51.018;4.474;2022-10-16T08:29:07;16.20;99.90
22950;DHT22;11641;51.018;4.474;2022-10-16T08:31:35;16.20;99.90
22950;DHT22;11641;51.018;4.474;2022-10-16T08:34:04;16.30;99.90
22950;DHT22;11641;51.018;4.474;2022-10-16T08:36:29;16.40;99.90
22950;DHT22;11641;51.018;4.474;2022-10-16T08:39:00;16.50;99.90
22950;DHT22;11641;51.018;4.474;2022-10-16T08:50:07;19.50;99.90
22950;DHT22;11641;51.018;4.474;2022-10-16T08:52:35;20.50;99.90
22950;DHT22;11641;51.018;4.474;2022-10-16T08:55:04;21.00;99.90
22950;DHT22;11641;51.018;4.474;2022-10-16T08:57:31;21.60;99.90
22950;DHT22;11641;51.018;4.474;2022-10-16T09:00:08;21.50;99.90
22950;DHT22;11641;51.018;4.474;2022-10-16T09:02:40;22.20;99.90
22950;DHT22;11641;51.018;4.474;2022-10-16T09:13:29;24.10;99.90
22950;DHT22;11641;51.018;4.474;2022-10-16T09:16:32;25.10;99.90
22950;DHT22;11641;51.018;4.474;2022-10-16T09:19:31;25.90;99.90
22950;DHT22;11641;51.018;4.474;2022-10-16T09:22:12;27.30;99.90
22950;DHT22;11641;51.018;4.474;2022-10-16T09:24:41;28.00;99.50
22950;DHT22;11641;51.018;4.474;2022-10-16T09:27:11;28.70;97.70
22950;DHT22;11641;51.018;4.474;2022-10-16T09:29:38;28.10;97.00
22950;DHT22;11641;51.018;4.474;2022-10-16T09:32:11;28.70;96.80
22950;DHT22;11641;51.018;4.474;2022-10-16T09:34:46;29.50;95.10
22950;DHT22;11641;51.018;4.474;2022-10-16T09:37:18;30.90;90.60
22950;DHT22;11641;51.018;4.474;2022-10-16T09:39:52;30.40;88.70
22950;DHT22;11641;51.018;4.474;2022-10-16T09:42:19;29.80;90.40
22950;DHT22;11641;51.018;4.474;2022-10-16T09:44:53;29.60;90.30
22950;DHT22;11641;51.018;4.474;2022-10-16T09:47:30;29.60;91.70
22950;DHT22;11641;51.018;4.474;2022-10-16T09:50:03;29.20;90.40
22950;DHT22;11641;51.018;4.474;2022-10-16T09:52:32;30.60;87.20
22950;DHT22;11641;51.018;4.474;2022-10-16T09:55:18;31.60;82.60
22950;DHT22;11641;51.018;4.474;2022-10-16T09:57:56;33.10;77.30
22950;DHT22;11641;51.018;4.474;2022-10-16T10:00:24;34.00;75.50
22950;DHT22;11641;51.018;4.474;2022-10-16T10:02:53;34.60;69.70
22950;DHT22;11641;51.018;4.474;2022-10-16T10:05:25;35.10;66.20
22950;DHT22;11641;51.018;4.474;2022-10-16T10:07:58;35.00;65.70
22950;DHT22;11641;51.018;4.474;2022-10-16T10:10:32;34.70;63.90
22950;DHT22;11641;51.018;4.474;2022-10-16T10:13:01;35.20;64.20
22950;DHT22;11641;51.018;4.474;2022-10-16T10:15:33;34.80;63.30
22950;DHT22;11641;51.018;4.474;2022-10-16T10:18:02;33.40;65.20
22950;DHT22;11641;51.018;4.474;2022-10-16T10:20:40;33.10;66.90
22950;DHT22;11641;51.018;4.474;2022-10-16T10:23:29;32.80;67.70
22950;DHT22;11641;51.018;4.474;2022-10-16T10:26:20;31.10;71.10
22950;DHT22;11641;51.018;4.474;2022-10-16T10:36:49;33.00;67.70
22950;DHT22;11641;51.018;4.474;2022-10-16T10:39:25;31.90;68.00
22950;DHT22;11641;51.018;4.474;2022-10-16T10:42:23;30.70;73.70
22950;DHT22;11641;51.018;4.474;2022-10-16T10:45:27;31.50;70.10
22950;DHT22;11641;51.018;4.474;2022-10-16T10:48:20;29.20;74.40
22950;DHT22;11641;51.018;4.474;2022-10-16T10:51:12;27.10;82.80
22950;DHT22;11641;51.018;4.474;2022-10-16T11:01:33;35.10;62.20
22950;DHT22;11641;51.018;4.474;2022-10-16T11:06:50;32.60;64.60
22950;DHT22;11641;51.018;4.474;2022-10-16T11:09:25;33.80;63.70
22950;DHT22;11641;51.018;4.474;2022-10-16T11:12:26;36.60;59.10
22950;DHT22;11641;51.018;4.474;2022-10-16T11:14:58;37.20;55.50
22950;DHT22;11641;51.018;4.474;2022-10-16T11:17:40;35.10;57.40
22950;DHT22;11641;51.018;4.474;2022-10-16T11:20:28;33.10;62.20
22950;DHT22;11641;51.018;4.474;2022-10-16T11:25:54;31.60;66.90
22950;DHT22;11641;51.018;4.474;2022-10-16T11:28:29;33.40;63.70
22950;DHT22;11641;51.018;4.474;2022-10-16T11:36:27;33.40;61.90
22950;DHT22;11641;51.018;4.474;2022-10-16T11:41:47;31.60;66.10
22950;DHT22;11641;51.018;4.474;2022-10-16T11:49:39;33.90;61.20
22950;DHT22;11641;51.018;4.474;2022-10-16T11:57:24;37.90;53.00
22950;DHT22;11641;51.018;4.474;2022-10-16T12:02:33;40.00;48.30
22950;DHT22;11641;51.018;4.474;2022-10-16T12:07:36;40.70;47.50
22950;DHT22;11641;51.018;4.474;2022-10-16T12:10:10;38.20;48.60
22950;DHT22;11641;51.018;4.474;2022-10-16T12:15:18;32.70;57.10
22950;DHT22;11641;51.018;4.474;2022-10-16T12:17:44;30.80;61.40
22950;DHT22;11641;51.018;4.474;2022-10-16T12:20:18;29.20;65.80
22950;DHT22;11641;51.018;4.474;2022-10-16T12:25:35;28.30;69.20
22950;DHT22;11641;51.018;4.474;2022-10-16T12:28:03;27.80;71.60
22950;DHT22;11641;51.018;4.474;2022-10-16T12:30:35;28.50;69.90
22950;DHT22;11641;51.018;4.474;2022-10-16T12:33:18;28.70;69.00
22950;DHT22;11641;51.018;4.474;2022-10-16T12:35:46;29.50;67.20
22950;DHT22;11641;51.018;4.474;2022-10-16T12:41:08;29.40;67.10
22950;DHT22;11641;51.018;4.474;2022-10-16T12:43:47;29.60;67.90
22950;DHT22;11641;51.018;4.474;2022-10-16T12:48:41;28.60;69.00
22950;DHT22;11641;51.018;4.474;2022-10-16T12:51:24;27.70;71.70
22950;DHT22;11641;51.018;4.474;2022-10-16T12:56:42;25.60;80.90
22950;DHT22;11641;51.018;4.474;2022-10-16T13:04:39;24.00;91.30
22950;DHT22;11641;51.018;4.474;2022-10-16T13:16:39;23.90;94.70
22950;DHT22;11641;51.018;4.474;2022-10-16T13:22:21;24.40;94.10
22950;DHT22;11641;51.018;4.474;2022-10-16T13:30:27;23.20;96.50
22950;DHT22;11641;51.018;4.474;2022-10-16T13:33:01;22.80;97.90
22950;DHT22;11641;51.018;4.474;2022-10-16T13:35:29;22.90;99.00
22950;DHT22;11641;51.018;4.474;2022-10-16T13:38:14;23.20;98.80
22950;DHT22;11641;51.018;4.474;2022-10-16T13:43:22;23.50;98.80
22950;DHT22;11641;51.018;4.474;2022-10-16T13:46:00;23.70;98.00
22950;DHT22;11641;51.018;4.474;2022-10-16T13:48:27;23.60;97.60
22950;DHT22;11641;51.018;4.474;2022-10-16T13:51:19;23.90;97.20
22950;DHT22;11641;51.018;4.474;2022-10-16T13:53:46;24.20;96.70
22950;DHT22;11641;51.018;4.474;2022-10-16T13:56:17;23.80;96.10
22950;DHT22;11641;51.018;4.474;2022-10-16T13:58:44;23.70;96.50
22950;DHT22;11641;51.018;4.474;2022-10-16T14:01:23;23.70;97.40
22950;DHT22;11641;51.018;4.474;2022-10-16T14:03:51;23.70;97.80
22950;DHT22;11641;51.018;4.474;2022-10-16T14:06:19;23.40;98.40
22950;DHT22;11641;51.018;4.474;2022-10-16T14:12:10;23.30;98.60
22950;DHT22;11641;51.018;4.474;2022-10-16T14:14:44;22.90;99.50
22950;DHT22;11641;51.018;4.474;2022-10-16T14:17:22;22.90;99.90
22950;DHT22;11641;51.018;4.474;2022-10-16T14:19:50;23.10;99.90
22950;DHT22;11641;51.018;4.474;2022-10-16T14:22:35;23.20;99.90
22950;DHT22;11641;51.018;4.474;2022-10-16T14:28:03;23.20;99.90
22950;DHT22;11641;51.018;4.474;2022-10-16T14:30:30;23.30;99.90
22950;DHT22;11641;51.018;4.474;2022-10-16T14:33:18;23.70;99.90
22950;DHT22;11641;51.018;4.474;2022-10-16T14:35:45;24.30;99.90
22950;DHT22;11641;51.018;4.474;2022-10-16T14:38:18;24.60;99.60
22950;DHT22;11641;51.018;4.474;2022-10-16T14:40:47;24.60;99.60
22950;DHT22;11641;51.018;4.474;2022-10-16T14:43:32;24.40;99.70
22950;DHT22;11641;51.018;4.474;2022-10-16T14:46:03;24.20;99.90
22950;DHT22;11641;51.018;4.474;2022-10-16T14:48:30;24.10;99.90
22950;DHT22;11641;51.018;4.474;2022-10-16T14:50:56;23.80;99.90
22950;DHT22;11641;51.018;4.474;2022-10-16T14:53:23;23.60;99.90
22950;DHT22;11641;51.018;4.474;2022-10-16T14:55:48;23.30;99.90
22950;DHT22;11641;51.018;4.474;2022-10-16T14:58:20;23.20;99.90
22950;DHT22;11641;51.018;4.474;2022-10-16T15:00:47;23.00;99.90
22950;DHT22;11641;51.018;4.474;2022-10-16T15:03:13;22.70;99.90
22950;DHT22;11641;51.018;4.474;2022-10-16T15:05:39;22.70;99.90
22950;DHT22;11641;51.018;4.474;2022-10-16T15:08:07;22.70;99.90
22950;DHT22;11641;51.018;4.474;2022-10-16T15:10:39;22.80;99.90
22950;DHT22;11641;51.018;4.474;2022-10-16T15:13:05;22.70;99.90
22950;DHT22;11641;51.018;4.474;2022-10-16T15:15:48;22.80;99.90
22950;DHT22;11641;51.018;4.474;2022-10-16T15:18:15;22.80;99.90
22950;DHT22;11641;51.018;4.474;2022-10-16T15:20:49;22.70;99.90
22950;DHT22;11641;51.018;4.474;2022-10-16T15:23:18;22.40;99.90
22950;DHT22;11641;51.018;4.474;2022-10-16T15:28:13;22.10;99.90
22950;DHT22;11641;51.018;4.474;2022-10-16T15:30:39;22.00;99.90
22950;DHT22;11641;51.018;4.474;2022-10-16T15:33:11;21.80;99.90
22950;DHT22;11641;51.018;4.474;2022-10-16T15:35:37;21.80;99.90
22950;DHT22;11641;51.018;4.474;2022-10-16T15:38:03;21.70;99.90
22950;DHT22;11641;51.018;4.474;2022-10-16T15:40:29;21.50;99.90
22950;DHT22;11641;51.018;4.474;2022-10-16T15:42:55;21.40;99.90
22950;DHT22;11641;51.018;4.474;2022-10-16T15:45:21;21.10;99.90
22950;DHT22;11641;51.018;4.474;2022-10-16T15:47:49;21.00;99.90
22950;DHT22;11641;51.018;4.474;2022-10-16T15:50:16;20.90;99.90
22950;DHT22;11641;51.018;4.474;2022-10-16T15:52:44;20.80;99.90
22950;DHT22;11641;51.018;4.474;2022-10-16T15:55:12;20.80;99.90
22950;DHT22;11641;51.018;4.474;2022-10-16T15:57:41;20.70;99.90
22950;DHT22;11641;51.018;4.474;2022-10-16T16:00:11;20.50;99.90
22950;DHT22;11641;51.018;4.474;2022-10-16T16:02:39;20.50;99.90
22950;DHT22;11641;51.018;4.474;2022-10-16T16:05:05;20.40;99.90
22950;DHT22;11641;51.018;4.474;2022-10-16T16:07:34;20.30;99.90
22950;DHT22;11641;51.018;4.474;2022-10-16T16:10:02;20.40;99.90
22950;DHT22;11641;51.018;4.474;2022-10-16T16:12:28;20.30;99.90
22950;DHT22;11641;51.018;4.474;2022-10-16T16:14:54;20.20;99.90
22950;DHT22;11641;51.018;4.474;2022-10-16T16:17:20;20.10;99.90
22950;DHT22;11641;51.018;4.474;2022-10-16T16:19:46;20.00;99.90
22950;DHT22;11641;51.018;4.474;2022-10-16T16:22:12;19.90;99.90
22950;DHT22;11641;51.018;4.474;2022-10-16T16:24:38;19.70;99.90
22950;DHT22;11641;51.018;4.474;2022-10-16T16:27:04;19.60;99.90
22950;DHT22;11641;51.018;4.474;2022-10-16T16:29:32;19.60;99.90
22950;DHT22;11641;51.018;4.474;2022-10-16T16:31:59;19.50;99.90
22950;DHT22;11641;51.018;4.474;2022-10-16T16:34:26;19.50;99.90
22950;DHT22;11641;51.018;4.474;2022-10-16T16:36:53;19.40;99.90
22950;DHT22;11641;51.018;4.474;2022-10-16T16:39:19;19.40;99.90
22950;DHT22;11641;51.018;4.474;2022-10-16T16:41:48;19.30;99.90
22950;DHT22;11641;51.018;4.474;2022-10-16T16:44:15;19.30;99.90
22950;DHT22;11641;51.018;4.474;2022-10-16T16:46:44;19.20;99.90
22950;DHT22;11641;51.018;4.474;2022-10-16T16:49:11;19.20;99.90
22950;DHT22;11641;51.018;4.474;2022-10-16T16:51:37;19.20;99.90
22950;DHT22;11641;51.018;4.474;2022-10-16T16:54:04;19.10;99.90
22950;DHT22;11641;51.018;4.474;2022-10-16T16:56:30;19.10;99.90
22950;DHT22;11641;51.018;4.474;2022-10-16T16:58:57;19.10;99.90
22950;DHT22;11641;51.018;4.474;2022-10-16T17:01:26;19.00;99.90
22950;DHT22;11641;51.018;4.474;2022-10-16T17:03:54;18.90;99.90
22950;DHT22;11641;51.018;4.474;2022-10-16T17:06:25;18.90;99.90
22950;DHT22;11641;51.018;4.474;2022-10-16T17:08:52;18.80;99.90
22950;DHT22;11641;51.018;4.474;2022-10-16T17:11:25;18.70;99.90
22950;DHT22;11641;51.018;4.474;2022-10-16T17:13:55;18.80;99.90
22950;DHT22;11641;51.018;4.474;2022-10-16T17:16:22;18.80;99.90
22950;DHT22;11641;51.018;4.474;2022-10-16T17:18:51;18.80;99.90
22950;DHT22;11641;51.018;4.474;2022-10-16T17:21:21;18.80;99.90
22950;DHT22;11641;51.018;4.474;2022-10-16T17:23:50;18.90;99.90
22950;DHT22;11641;51.018;4.474;2022-10-16T17:26:16;19.00;99.90
22950;DHT22;11641;51.018;4.474;2022-10-16T17:28:44;18.90;99.90
22950;DHT22;11641;51.018;4.474;2022-10-16T17:31:18;18.80;99.90
22950;DHT22;11641;51.018;4.474;2022-10-16T17:33:44;18.80;99.90
22950;DHT22;11641;51.018;4.474;2022-10-16T17:36:13;18.60;99.90
22950;DHT22;11641;51.018;4.474;2022-10-16T17:38:40;18.60;99.90
22950;DHT22;11641;51.018;4.474;2022-10-16T17:41:17;18.50;99.90
22950;DHT22;11641;51.018;4.474;2022-10-16T17:43:43;18.40;99.90
22950;DHT22;11641;51.018;4.474;2022-10-16T17:46:10;18.30;99.90
22950;DHT22;11641;51.018;4.474;2022-10-16T17:48:40;18.30;99.90
22950;DHT22;11641;51.018;4.474;2022-10-16T17:51:12;18.20;99.90